Terminal Aerodrome Forecast
Issued by NWS

Home | Current Version | Previous Version | Text Only | Print | Product List | Glossary On
Versions: 1 2 3 4 5 6 7 8 9 10 11 12 13 14 15 16 17 18
575
FTUS41 KCAR 170839 AAC
TAFFVE
TAF AMD
KFVE 170839Z 1709/1806 VRB03KT P6SM SCT007 BKN020
     FM171600 16004KT 6SM -SHSN BKN025
     FM180100 VRB03KT 2SM -SN OVC015
     FM180300 VRB02KT 3SM -SN OVC015=

USA.gov is the U.S. government's official web portal to all federal, state and local government web resources and services.